sensor_id;sensor_type;location;lat;lon;timestamp;pressure;altitude;pressure_sealevel;temperature;humidity
59608;BME280;45426;44.726;10.390;2022-10-16T00:00:53;100932.69;;;20.55;100.00
59608;BME280;45426;44.726;10.390;2022-10-16T00:03:18;100939.84;;;20.64;100.00
59608;BME280;45426;44.726;10.390;2022-10-16T00:05:44;100930.56;;;20.24;100.00
59608;BME280;45426;44.726;10.390;2022-10-16T00:08:12;100932.16;;;20.32;100.00
59608;BME280;45426;44.726;10.390;2022-10-16T00:10:38;100934.91;;;20.28;100.00
59608;BME280;45426;44.726;10.390;2022-10-16T00:13:04;100938.94;;;20.49;100.00
59608;BME280;45426;44.726;10.390;2022-10-16T00:15:32;100948.44;;;20.55;100.00
59608;BME280;45426;44.726;10.390;2022-10-16T00:17:58;100950.03;;;20.56;100.00
59608;BME280;45426;44.726;10.390;2022-10-16T00:20:23;100948.81;;;20.57;100.00
59608;BME280;45426;44.726;10.390;2022-10-16T00:22:49;100952.44;;;20.61;100.00
59608;BME280;45426;44.726;10.390;2022-10-16T00:25:14;100958.63;;;20.44;100.00
59608;BME280;45426;44.726;10.390;2022-10-16T00:27:43;100960.28;;;20.59;100.00
59608;BME280;45426;44.726;10.390;2022-10-16T00:30:08;100958.59;;;20.36;100.00
59608;BME280;45426;44.726;10.390;2022-10-16T00:32:34;100959.94;;;19.98;100.00
59608;BME280;45426;44.726;10.390;2022-10-16T00:34:59;100960.69;;;19.91;100.00
59608;BME280;45426;44.726;10.390;2022-10-16T00:37:25;100960.88;;;20.20;100.00
59608;BME280;45426;44.726;10.390;2022-10-16T00:39:50;100963.22;;;20.22;100.00
59608;BME280;45426;44.726;10.390;2022-10-16T00:42:18;100960.13;;;20.30;100.00
59608;BME280;45426;44.726;10.390;2022-10-16T00:47:17;100964.84;;;20.26;100.00
59608;BME280;45426;44.726;10.390;2022-10-16T00:49:45;100965.53;;;20.12;100.00
59608;BME280;45426;44.726;10.390;2022-10-16T00:52:13;100962.53;;;20.35;100.00
59608;BME280;45426;44.726;10.390;2022-10-16T00:54:39;100961.72;;;20.28;100.00
59608;BME280;45426;44.726;10.390;2022-10-16T00:57:06;100970.97;;;19.98;100.00
59608;BME280;45426;44.726;10.390;2022-10-16T00:59:32;100970.94;;;19.94;100.00
59608;BME280;45426;44.726;10.390;2022-10-16T01:01:59;100974.19;;;20.07;100.00
59608;BME280;45426;44.726;10.390;2022-10-16T01:04:26;100980.78;;;19.92;100.00
59608;BME280;45426;44.726;10.390;2022-10-16T01:09:40;100967.22;;;20.24;100.00
59608;BME280;45426;44.726;10.390;2022-10-16T01:22:55;100971.06;;;19.61;100.00
59608;BME280;45426;44.726;10.390;2022-10-16T01:28:34;100966.00;;;19.70;100.00
59608;BME280;45426;44.726;10.390;2022-10-16T01:31:03;100960.19;;;19.37;100.00
59608;BME280;45426;44.726;10.390;2022-10-16T01:33:35;100962.91;;;19.34;100.00
59608;BME280;45426;44.726;10.390;2022-10-16T01:36:10;100961.03;;;19.83;100.00
59608;BME280;45426;44.726;10.390;2022-10-16T01:38:38;100961.53;;;19.54;100.00
59608;BME280;45426;44.726;10.390;2022-10-16T01:46:28;100960.59;;;19.77;100.00
59608;BME280;45426;44.726;10.390;2022-10-16T01:48:56;100960.63;;;19.84;100.00
59608;BME280;45426;44.726;10.390;2022-10-16T01:51:23;100969.69;;;19.40;100.00
59608;BME280;45426;44.726;10.390;2022-10-16T01:53:53;100974.16;;;19.14;100.00
59608;BME280;45426;44.726;10.390;2022-10-16T01:56:21;100974.56;;;19.16;100.00
59608;BME280;45426;44.726;10.390;2022-10-16T01:58:59;100976.31;;;19.35;100.00
59608;BME280;45426;44.726;10.390;2022-10-16T02:01:28;100969.47;;;19.18;100.00
59608;BME280;45426;44.726;10.390;2022-10-16T02:03:58;100972.78;;;19.76;100.00
59608;BME280;45426;44.726;10.390;2022-10-16T02:06:26;100969.00;;;19.54;100.00
59608;BME280;45426;44.726;10.390;2022-10-16T02:08:53;100980.03;;;19.54;100.00
59608;BME280;45426;44.726;10.390;2022-10-16T02:11:18;100976.78;;;19.41;100.00
59608;BME280;45426;44.726;10.390;2022-10-16T02:13:48;100973.81;;;19.61;100.00
59608;BME280;45426;44.726;10.390;2022-10-16T02:16:16;100973.00;;;19.56;100.00
59608;BME280;45426;44.726;10.390;2022-10-16T02:18:43;100973.47;;;19.66;100.00
59608;BME280;45426;44.726;10.390;2022-10-16T02:21:18;100976.06;;;19.48;100.00
59608;BME280;45426;44.726;10.390;2022-10-16T02:26:51;100976.50;;;19.53;100.00
59608;BME280;45426;44.726;10.390;2022-10-16T02:29:21;100977.84;;;19.29;100.00
59608;BME280;45426;44.726;10.390;2022-10-16T02:31:51;100967.28;;;19.35;100.00
59608;BME280;45426;44.726;10.390;2022-10-16T02:34:20;100972.94;;;19.49;100.00
59608;BME280;45426;44.726;10.390;2022-10-16T02:36:48;100967.03;;;19.54;100.00
59608;BME280;45426;44.726;10.390;2022-10-16T02:39:15;100979.59;;;19.48;100.00
59608;BME280;45426;44.726;10.390;2022-10-16T02:41:41;100985.38;;;19.32;100.00
59608;BME280;45426;44.726;10.390;2022-10-16T02:44:06;100982.03;;;19.16;100.00
59608;BME280;45426;44.726;10.390;2022-10-16T02:46:32;100994.16;;;18.77;100.00
59608;BME280;45426;44.726;10.390;2022-10-16T02:48:57;100993.47;;;18.27;100.00
59608;BME280;45426;44.726;10.390;2022-10-16T02:51:22;100992.88;;;17.88;100.00
59608;BME280;45426;44.726;10.390;2022-10-16T02:53:48;100997.88;;;17.59;100.00
59608;BME280;45426;44.726;10.390;2022-10-16T02:56:13;101006.13;;;17.39;100.00
59608;BME280;45426;44.726;10.390;2022-10-16T02:58:39;101002.97;;;18.07;100.00
59608;BME280;45426;44.726;10.390;2022-10-16T03:01:04;101000.03;;;18.46;100.00
59608;BME280;45426;44.726;10.390;2022-10-16T03:03:29;101002.19;;;18.33;100.00
59608;BME280;45426;44.726;10.390;2022-10-16T03:05:55;100996.09;;;18.16;100.00
59608;BME280;45426;44.726;10.390;2022-10-16T03:08:20;101001.88;;;18.38;100.00
59608;BME280;45426;44.726;10.390;2022-10-16T03:10:49;100996.28;;;18.57;100.00
59608;BME280;45426;44.726;10.390;2022-10-16T03:13:14;101005.72;;;18.30;100.00
59608;BME280;45426;44.726;10.390;2022-10-16T03:15:40;101006.53;;;17.84;100.00
59608;BME280;45426;44.726;10.390;2022-10-16T03:18:05;101015.34;;;17.27;100.00
59608;BME280;45426;44.726;10.390;2022-10-16T03:20:30;101017.19;;;17.43;100.00
59608;BME280;45426;44.726;10.390;2022-10-16T03:22:56;101011.44;;;17.71;100.00
59608;BME280;45426;44.726;10.390;2022-10-16T03:25:21;101004.78;;;17.95;100.00
59608;BME280;45426;44.726;10.390;2022-10-16T03:27:47;101011.31;;;17.87;100.00
59608;BME280;45426;44.726;10.390;2022-10-16T03:30:12;101022.94;;;17.15;100.00
59608;BME280;45426;44.726;10.390;2022-10-16T03:32:38;101027.06;;;17.24;100.00
59608;BME280;45426;44.726;10.390;2022-10-16T03:35:03;101019.06;;;17.58;100.00
59608;BME280;45426;44.726;10.390;2022-10-16T03:37:32;101031.44;;;16.71;100.00
59608;BME280;45426;44.726;10.390;2022-10-16T03:39:57;101024.41;;;16.54;100.00
59608;BME280;45426;44.726;10.390;2022-10-16T03:42:23;101019.56;;;16.82;100.00
59608;BME280;45426;44.726;10.390;2022-10-16T03:44:49;101027.88;;;16.70;100.00
59608;BME280;45426;44.726;10.390;2022-10-16T03:47:14;101023.94;;;16.87;100.00
59608;BME280;45426;44.726;10.390;2022-10-16T03:49:40;101032.16;;;16.67;100.00
59608;BME280;45426;44.726;10.390;2022-10-16T03:52:05;101024.25;;;17.01;100.00
59608;BME280;45426;44.726;10.390;2022-10-16T03:54:31;101029.09;;;16.53;100.00
59608;BME280;45426;44.726;10.390;2022-10-16T03:56:56;101037.44;;;16.25;100.00
59608;BME280;45426;44.726;10.390;2022-10-16T03:59:21;101038.50;;;16.87;100.00
59608;BME280;45426;44.726;10.390;2022-10-16T04:01:47;101027.09;;;16.85;100.00
59608;BME280;45426;44.726;10.390;2022-10-16T04:04:12;101034.88;;;16.32;100.00
59608;BME280;45426;44.726;10.390;2022-10-16T04:06:37;101044.19;;;16.11;100.00
59608;BME280;45426;44.726;10.390;2022-10-16T04:09:03;101050.84;;;15.79;100.00
59608;BME280;45426;44.726;10.390;2022-10-16T04:11:28;101049.97;;;15.62;100.00
59608;BME280;45426;44.726;10.390;2022-10-16T04:13:54;101049.22;;;15.78;100.00
59608;BME280;45426;44.726;10.390;2022-10-16T04:16:19;101047.19;;;15.75;100.00
59608;BME280;45426;44.726;10.390;2022-10-16T04:18:45;101048.09;;;16.10;100.00
59608;BME280;45426;44.726;10.390;2022-10-16T04:21:10;101041.38;;;16.08;100.00
59608;BME280;45426;44.726;10.390;2022-10-16T04:23:36;101038.78;;;16.15;100.00
59608;BME280;45426;44.726;10.390;2022-10-16T04:26:01;101038.22;;;16.41;100.00
59608;BME280;45426;44.726;10.390;2022-10-16T04:28:27;101039.16;;;16.65;100.00
59608;BME280;45426;44.726;10.390;2022-10-16T04:30:53;101041.16;;;16.33;100.00
59608;BME280;45426;44.726;10.390;2022-10-16T04:33:18;101040.28;;;16.28;100.00
59608;BME280;45426;44.726;10.390;2022-10-16T04:35:44;101046.19;;;16.46;100.00
59608;BME280;45426;44.726;10.390;2022-10-16T04:38:09;101038.16;;;17.32;100.00
59608;BME280;45426;44.726;10.390;2022-10-16T04:40:35;101038.59;;;17.34;100.00
59608;BME280;45426;44.726;10.390;2022-10-16T04:43:04;101030.41;;;16.95;100.00
59608;BME280;45426;44.726;10.390;2022-10-16T04:45:29;101033.88;;;16.76;100.00
59608;BME280;45426;44.726;10.390;2022-10-16T04:47:58;101043.75;;;16.25;100.00
59608;BME280;45426;44.726;10.390;2022-10-16T04:50:24;101048.34;;;16.21;100.00
59608;BME280;45426;44.726;10.390;2022-10-16T04:52:50;101055.72;;;15.57;100.00
59608;BME280;45426;44.726;10.390;2022-10-16T04:55:15;101064.94;;;15.37;100.00
59608;BME280;45426;44.726;10.390;2022-10-16T04:57:40;101059.75;;;15.47;100.00
59608;BME280;45426;44.726;10.390;2022-10-16T05:00:06;101065.34;;;15.51;100.00
59608;BME280;45426;44.726;10.390;2022-10-16T05:02:33;101071.81;;;15.30;100.00
59608;BME280;45426;44.726;10.390;2022-10-16T05:04:58;101067.22;;;15.34;100.00
59608;BME280;45426;44.726;10.390;2022-10-16T05:07:24;101064.63;;;15.82;100.00
59608;BME280;45426;44.726;10.390;2022-10-16T05:09:49;101061.50;;;15.84;100.00
59608;BME280;45426;44.726;10.390;2022-10-16T05:12:14;101065.78;;;15.53;100.00
59608;BME280;45426;44.726;10.390;2022-10-16T05:14:40;101072.59;;;15.31;100.00
59608;BME280;45426;44.726;10.390;2022-10-16T05:17:06;101074.34;;;15.23;100.00
59608;BME280;45426;44.726;10.390;2022-10-16T05:19:31;101066.69;;;15.73;100.00
59608;BME280;45426;44.726;10.390;2022-10-16T05:21:56;101064.81;;;15.61;100.00
59608;BME280;45426;44.726;10.390;2022-10-16T05:24:22;101066.94;;;15.68;100.00
59608;BME280;45426;44.726;10.390;2022-10-16T05:26:48;101066.91;;;15.80;100.00
59608;BME280;45426;44.726;10.390;2022-10-16T05:29:14;101068.81;;;16.59;100.00
59608;BME280;45426;44.726;10.390;2022-10-16T05:31:39;101065.59;;;16.22;100.00
59608;BME280;45426;44.726;10.390;2022-10-16T05:34:05;101074.00;;;15.53;100.00
59608;BME280;45426;44.726;10.390;2022-10-16T05:36:30;101080.13;;;15.34;100.00
59608;BME280;45426;44.726;10.390;2022-10-16T05:38:56;101082.75;;;15.59;100.00
59608;BME280;45426;44.726;10.390;2022-10-16T05:41:21;101093.50;;;15.51;100.00
59608;BME280;45426;44.726;10.390;2022-10-16T05:43:48;101091.41;;;15.61;100.00
59608;BME280;45426;44.726;10.390;2022-10-16T05:46:15;101095.56;;;15.70;100.00
59608;BME280;45426;44.726;10.390;2022-10-16T05:48:40;101090.16;;;16.02;100.00
59608;BME280;45426;44.726;10.390;2022-10-16T05:51:07;101085.41;;;15.99;100.00
59608;BME280;45426;44.726;10.390;2022-10-16T05:53:36;101082.72;;;16.50;100.00
59608;BME280;45426;44.726;10.390;2022-10-16T05:56:02;101084.31;;;16.87;100.00
59608;BME280;45426;44.726;10.390;2022-10-16T05:58:29;101085.19;;;16.56;100.00
59608;BME280;45426;44.726;10.390;2022-10-16T06:01:03;101093.38;;;16.72;100.00
59608;BME280;45426;44.726;10.390;2022-10-16T06:03:29;101093.81;;;16.90;100.00
59608;BME280;45426;44.726;10.390;2022-10-16T06:05:54;101093.81;;;17.09;100.00
59608;BME280;45426;44.726;10.390;2022-10-16T06:08:21;101103.63;;;16.91;100.00
59608;BME280;45426;44.726;10.390;2022-10-16T06:10:47;101105.53;;;17.45;100.00
59608;BME280;45426;44.726;10.390;2022-10-16T06:13:13;101106.56;;;17.17;100.00
59608;BME280;45426;44.726;10.390;2022-10-16T06:15:42;101112.19;;;17.44;100.00
59608;BME280;45426;44.726;10.390;2022-10-16T06:18:09;101110.22;;;17.44;100.00
59608;BME280;45426;44.726;10.390;2022-10-16T06:20:35;101120.25;;;17.76;100.00
59608;BME280;45426;44.726;10.390;2022-10-16T06:23:01;101112.78;;;18.19;100.00
59608;BME280;45426;44.726;10.390;2022-10-16T06:25:26;101123.09;;;18.02;100.00
59608;BME280;45426;44.726;10.390;2022-10-16T06:27:51;101124.91;;;18.14;100.00
59608;BME280;45426;44.726;10.390;2022-10-16T06:30:17;101135.16;;;17.94;100.00
59608;BME280;45426;44.726;10.390;2022-10-16T06:32:42;101142.72;;;17.81;100.00
59608;BME280;45426;44.726;10.390;2022-10-16T06:35:07;101140.09;;;18.08;100.00
59608;BME280;45426;44.726;10.390;2022-10-16T06:37:33;101149.69;;;17.75;100.00
59608;BME280;45426;44.726;10.390;2022-10-16T06:39:58;101144.53;;;17.93;100.00
59608;BME280;45426;44.726;10.390;2022-10-16T06:42:25;101153.09;;;17.88;100.00
59608;BME280;45426;44.726;10.390;2022-10-16T06:44:50;101144.69;;;17.81;100.00
59608;BME280;45426;44.726;10.390;2022-10-16T06:47:16;101160.75;;;17.98;100.00
59608;BME280;45426;44.726;10.390;2022-10-16T06:49:41;101154.97;;;18.53;100.00
59608;BME280;45426;44.726;10.390;2022-10-16T06:52:06;101166.38;;;17.86;100.00
59608;BME280;45426;44.726;10.390;2022-10-16T06:54:32;101171.03;;;17.62;100.00
59608;BME280;45426;44.726;10.390;2022-10-16T06:56:57;101173.28;;;18.19;100.00
59608;BME280;45426;44.726;10.390;2022-10-16T06:59:25;101169.81;;;18.45;100.00
59608;BME280;45426;44.726;10.390;2022-10-16T07:01:50;101173.31;;;18.92;100.00
59608;BME280;45426;44.726;10.390;2022-10-16T07:04:16;101177.00;;;18.76;100.00
59608;BME280;45426;44.726;10.390;2022-10-16T07:06:41;101183.03;;;19.12;100.00
59608;BME280;45426;44.726;10.390;2022-10-16T07:09:09;101189.50;;;18.97;100.00
59608;BME280;45426;44.726;10.390;2022-10-16T07:11:35;101183.50;;;18.41;100.00
59608;BME280;45426;44.726;10.390;2022-10-16T07:14:01;101191.69;;;18.15;100.00
59608;BME280;45426;44.726;10.390;2022-10-16T07:16:29;101197.25;;;18.18;100.00
59608;BME280;45426;44.726;10.390;2022-10-16T07:19:00;101189.50;;;18.74;100.00
59608;BME280;45426;44.726;10.390;2022-10-16T07:21:29;101194.44;;;18.38;100.00
59608;BME280;45426;44.726;10.390;2022-10-16T07:23:59;101199.94;;;18.61;100.00
59608;BME280;45426;44.726;10.390;2022-10-16T07:26:27;101202.78;;;18.68;100.00
59608;BME280;45426;44.726;10.390;2022-10-16T07:28:53;101198.81;;;18.89;100.00
59608;BME280;45426;44.726;10.390;2022-10-16T07:31:19;101199.97;;;19.14;100.00
59608;BME280;45426;44.726;10.390;2022-10-16T07:33:46;101206.47;;;18.99;100.00
59608;BME280;45426;44.726;10.390;2022-10-16T07:36:15;101203.47;;;19.38;100.00
59608;BME280;45426;44.726;10.390;2022-10-16T07:38:40;101202.31;;;19.43;100.00
59608;BME280;45426;44.726;10.390;2022-10-16T07:41:10;101212.09;;;19.67;100.00
59608;BME280;45426;44.726;10.390;2022-10-16T07:43:36;101210.31;;;19.82;100.00
59608;BME280;45426;44.726;10.390;2022-10-16T07:46:01;101215.56;;;19.64;100.00
59608;BME280;45426;44.726;10.390;2022-10-16T07:48:29;101225.19;;;19.73;100.00
59608;BME280;45426;44.726;10.390;2022-10-16T07:51:02;101229.75;;;19.62;100.00
59608;BME280;45426;44.726;10.390;2022-10-16T07:53:28;101230.34;;;19.78;100.00
59608;BME280;45426;44.726;10.390;2022-10-16T07:55:58;101224.44;;;19.76;100.00
59608;BME280;45426;44.726;10.390;2022-10-16T07:58:23;101231.75;;;20.36;100.00
59608;BME280;45426;44.726;10.390;2022-10-16T08:00:49;101228.03;;;20.55;100.00
59608;BME280;45426;44.726;10.390;2022-10-16T08:03:14;101235.31;;;20.33;100.00
59608;BME280;45426;44.726;10.390;2022-10-16T08:05:39;101233.00;;;20.84;100.00
59608;BME280;45426;44.726;10.390;2022-10-16T08:08:05;101238.19;;;20.48;100.00
59608;BME280;45426;44.726;10.390;2022-10-16T08:10:30;101245.34;;;20.97;100.00
59608;BME280;45426;44.726;10.390;2022-10-16T08:12:57;101232.16;;;21.35;100.00
59608;BME280;45426;44.726;10.390;2022-10-16T08:15:22;101233.53;;;21.70;100.00
59608;BME280;45426;44.726;10.390;2022-10-16T08:17:59;101234.78;;;21.13;100.00
59608;BME280;45426;44.726;10.390;2022-10-16T08:20:25;101241.41;;;21.02;100.00
59608;BME280;45426;44.726;10.390;2022-10-16T08:22:51;101237.59;;;22.08;100.00
59608;BME280;45426;44.726;10.390;2022-10-16T08:25:17;101236.03;;;22.22;100.00
59608;BME280;45426;44.726;10.390;2022-10-16T08:27:42;101246.41;;;22.50;100.00
59608;BME280;45426;44.726;10.390;2022-10-16T08:30:08;101242.44;;;22.62;100.00
59608;BME280;45426;44.726;10.390;2022-10-16T08:32:34;101244.38;;;23.26;100.00
59608;BME280;45426;44.726;10.390;2022-10-16T08:34:59;101250.38;;;22.56;100.00
59608;BME280;45426;44.726;10.390;2022-10-16T08:37:24;101242.06;;;22.67;100.00
59608;BME280;45426;44.726;10.390;2022-10-16T08:39:50;101246.78;;;23.24;100.00
59608;BME280;45426;44.726;10.390;2022-10-16T08:47:47;101244.03;;;22.81;100.00
59608;BME280;45426;44.726;10.390;2022-10-16T08:50:27;101247.59;;;22.78;100.00
59608;BME280;45426;44.726;10.390;2022-10-16T08:52:54;101241.94;;;23.57;100.00
59608;BME280;45426;44.726;10.390;2022-10-16T08:58:00;101247.38;;;23.75;100.00
59608;BME280;45426;44.726;10.390;2022-10-16T09:00:26;101240.19;;;23.92;100.00
59608;BME280;45426;44.726;10.390;2022-10-16T09:05:49;101246.59;;;23.74;100.00
59608;BME280;45426;44.726;10.390;2022-10-16T09:16:34;101259.84;;;23.31;100.00
59608;BME280;45426;44.726;10.390;2022-10-16T09:21:40;101259.22;;;23.93;100.00
59608;BME280;45426;44.726;10.390;2022-10-16T09:24:15;101257.31;;;23.83;100.00
59608;BME280;45426;44.726;10.390;2022-10-16T09:26:42;101258.88;;;24.51;100.00
59608;BME280;45426;44.726;10.390;2022-10-16T09:29:16;101259.50;;;24.17;100.00
59608;BME280;45426;44.726;10.390;2022-10-16T09:31:42;101253.84;;;24.87;100.00
59608;BME280;45426;44.726;10.390;2022-10-16T09:34:30;101252.47;;;24.61;100.00
59608;BME280;45426;44.726;10.390;2022-10-16T09:36:58;101254.66;;;24.32;100.00
59608;BME280;45426;44.726;10.390;2022-10-16T09:39:24;101257.13;;;24.78;100.00
59608;BME280;45426;44.726;10.390;2022-10-16T09:41:50;101252.28;;;24.86;100.00
59608;BME280;45426;44.726;10.390;2022-10-16T09:46:47;101255.00;;;24.93;100.00
59608;BME280;45426;44.726;10.390;2022-10-16T09:49:20;101253.53;;;24.78;100.00
59608;BME280;45426;44.726;10.390;2022-10-16T09:51:46;101257.38;;;24.39;100.00
59608;BME280;45426;44.726;10.390;2022-10-16T09:54:15;101247.19;;;24.18;100.00
59608;BME280;45426;44.726;10.390;2022-10-16T09:56:41;101251.44;;;24.89;100.00
59608;BME280;45426;44.726;10.390;2022-10-16T09:59:18;101248.94;;;25.02;100.00
59608;BME280;45426;44.726;10.390;2022-10-16T10:01:51;101249.56;;;24.79;100.00
59608;BME280;45426;44.726;10.390;2022-10-16T10:04:22;101249.34;;;24.55;100.00
59608;BME280;45426;44.726;10.390;2022-10-16T10:06:53;101255.44;;;25.30;100.00
59608;BME280;45426;44.726;10.390;2022-10-16T10:09:20;101254.28;;;25.62;100.00
59608;BME280;45426;44.726;10.390;2022-10-16T10:11:52;101254.09;;;25.04;100.00
59608;BME280;45426;44.726;10.390;2022-10-16T10:14:21;101245.63;;;25.87;100.00
59608;BME280;45426;44.726;10.390;2022-10-16T10:16:48;101252.53;;;25.41;100.00
59608;BME280;45426;44.726;10.390;2022-10-16T10:19:22;101252.75;;;25.57;100.00
59608;BME280;45426;44.726;10.390;2022-10-16T10:21:48;101250.81;;;25.54;100.00
59608;BME280;45426;44.726;10.390;2022-10-16T10:24:16;101245.06;;;24.40;100.00
59608;BME280;45426;44.726;10.390;2022-10-16T10:27:29;101252.53;;;25.03;100.00
59608;BME280;45426;44.726;10.390;2022-10-16T10:29:56;101250.41;;;24.69;100.00
59608;BME280;45426;44.726;10.390;2022-10-16T10:35:38;101241.47;;;24.43;100.00
59608;BME280;45426;44.726;10.390;2022-10-16T10:56:14;101242.34;;;24.29;100.00
59608;BME280;45426;44.726;10.390;2022-10-16T11:01:16;101238.31;;;24.41;100.00
59608;BME280;45426;44.726;10.390;2022-10-16T11:04:11;101238.44;;;24.23;100.00
59608;BME280;45426;44.726;10.390;2022-10-16T11:06:47;101238.63;;;25.03;100.00
59608;BME280;45426;44.726;10.390;2022-10-16T11:09:21;101236.66;;;24.51;100.00
59608;BME280;45426;44.726;10.390;2022-10-16T11:11:53;101236.41;;;24.83;100.00
59608;BME280;45426;44.726;10.390;2022-10-16T11:14:35;101235.44;;;25.42;100.00
59608;BME280;45426;44.726;10.390;2022-10-16T11:27:18;101227.09;;;25.00;100.00
59608;BME280;45426;44.726;10.390;2022-10-16T11:29:59;101232.09;;;25.20;100.00
59608;BME280;45426;44.726;10.390;2022-10-16T11:32:39;101225.69;;;25.92;100.00
59608;BME280;45426;44.726;10.390;2022-10-16T11:35:17;101223.91;;;26.05;100.00
59608;BME280;45426;44.726;10.390;2022-10-16T11:37:46;101221.78;;;26.40;100.00
59608;BME280;45426;44.726;10.390;2022-10-16T11:40:33;101218.34;;;26.32;100.00
59608;BME280;45426;44.726;10.390;2022-10-16T11:43:38;101217.59;;;26.79;100.00
59608;BME280;45426;44.726;10.390;2022-10-16T11:46:15;101223.22;;;25.98;100.00
59608;BME280;45426;44.726;10.390;2022-10-16T11:48:47;101216.63;;;26.15;100.00
59608;BME280;45426;44.726;10.390;2022-10-16T11:51:52;101221.25;;;25.64;100.00
59608;BME280;45426;44.726;10.390;2022-10-16T11:57:00;101208.78;;;26.57;100.00
59608;BME280;45426;44.726;10.390;2022-10-16T11:59:46;101211.47;;;25.83;100.00
59608;BME280;45426;44.726;10.390;2022-10-16T12:05:02;101209.94;;;25.47;100.00
59608;BME280;45426;44.726;10.390;2022-10-16T12:07:36;101212.47;;;24.96;100.00
59608;BME280;45426;44.726;10.390;2022-10-16T12:10:21;101222.47;;;25.28;100.00
59608;BME280;45426;44.726;10.390;2022-10-16T12:12:47;101219.16;;;25.41;100.00
59608;BME280;45426;44.726;10.390;2022-10-16T12:15:25;101214.38;;;25.41;100.00
59608;BME280;45426;44.726;10.390;2022-10-16T12:17:51;101211.19;;;25.73;100.00
59608;BME280;45426;44.726;10.390;2022-10-16T12:23:16;101209.53;;;25.49;100.00
59608;BME280;45426;44.726;10.390;2022-10-16T12:25:37;101218.44;;;25.36;100.00
59608;BME280;45426;44.726;10.390;2022-10-16T12:28:22;101211.47;;;25.83;100.00
59608;BME280;45426;44.726;10.390;2022-10-16T12:31:05;101210.38;;;25.76;100.00
59608;BME280;45426;44.726;10.390;2022-10-16T12:33:57;101211.84;;;25.19;100.00
59608;BME280;45426;44.726;10.390;2022-10-16T12:36:30;101216.03;;;25.69;100.00
59608;BME280;45426;44.726;10.390;2022-10-16T12:38:56;101212.31;;;25.80;100.00
59608;BME280;45426;44.726;10.390;2022-10-16T12:41:27;101221.19;;;25.40;100.00
59608;BME280;45426;44.726;10.390;2022-10-16T12:43:53;101222.06;;;25.30;100.00
59608;BME280;45426;44.726;10.390;2022-10-16T12:48:44;101224.13;;;25.22;100.00
59608;BME280;45426;44.726;10.390;2022-10-16T12:51:21;101225.56;;;25.37;100.00
59608;BME280;45426;44.726;10.390;2022-10-16T13:10:24;101216.31;;;25.79;100.00
59608;BME280;45426;44.726;10.390;2022-10-16T13:13:14;101215.56;;;26.05;100.00
59608;BME280;45426;44.726;10.390;2022-10-16T13:16:10;101212.88;;;25.67;100.00
59608;BME280;45426;44.726;10.390;2022-10-16T13:18:58;101225.75;;;25.23;100.00
59608;BME280;45426;44.726;10.390;2022-10-16T13:21:45;101229.94;;;24.97;100.00
59608;BME280;45426;44.726;10.390;2022-10-16T13:29:32;101227.06;;;24.63;100.00
59608;BME280;45426;44.726;10.390;2022-10-16T13:32:00;101232.81;;;24.86;100.00
59608;BME280;45426;44.726;10.390;2022-10-16T13:34:27;101233.09;;;24.99;100.00
59608;BME280;45426;44.726;10.390;2022-10-16T13:36:53;101233.25;;;24.81;100.00
59608;BME280;45426;44.726;10.390;2022-10-16T13:39:23;101224.16;;;25.18;100.00
59608;BME280;45426;44.726;10.390;2022-10-16T13:42:24;101229.41;;;25.47;100.00
59608;BME280;45426;44.726;10.390;2022-10-16T13:44:52;101226.88;;;24.84;100.00
59608;BME280;45426;44.726;10.390;2022-10-16T13:47:26;101224.31;;;25.00;100.00
59608;BME280;45426;44.726;10.390;2022-10-16T13:50:04;101233.06;;;25.03;100.00
59608;BME280;45426;44.726;10.390;2022-10-16T13:52:30;101223.06;;;25.47;100.00
59608;BME280;45426;44.726;10.390;2022-10-16T13:54:56;101237.59;;;25.27;100.00
59608;BME280;45426;44.726;10.390;2022-10-16T13:57:23;101229.84;;;25.04;100.00
59608;BME280;45426;44.726;10.390;2022-10-16T13:59:50;101225.22;;;24.90;100.00
59608;BME280;45426;44.726;10.390;2022-10-16T14:04:50;101237.63;;;25.58;100.00
59608;BME280;45426;44.726;10.390;2022-10-16T14:07:23;101238.66;;;25.41;100.00
59608;BME280;45426;44.726;10.390;2022-10-16T14:09:50;101237.69;;;25.16;100.00
59608;BME280;45426;44.726;10.390;2022-10-16T14:12:16;101236.09;;;25.15;100.00
59608;BME280;45426;44.726;10.390;2022-10-16T14:14:47;101233.63;;;24.83;100.00
59608;BME280;45426;44.726;10.390;2022-10-16T14:17:14;101234.75;;;24.89;100.00
59608;BME280;45426;44.726;10.390;2022-10-16T14:19:40;101231.16;;;24.92;100.00
59608;BME280;45426;44.726;10.390;2022-10-16T14:24:47;101228.84;;;25.29;100.00
59608;BME280;45426;44.726;10.390;2022-10-16T14:27:28;101228.41;;;25.30;100.00
59608;BME280;45426;44.726;10.390;2022-10-16T14:30:23;101237.38;;;25.45;100.00
59608;BME280;45426;44.726;10.390;2022-10-16T14:33:24;101239.38;;;25.07;100.00
59608;BME280;45426;44.726;10.390;2022-10-16T14:36:03;101244.66;;;25.35;100.00
59608;BME280;45426;44.726;10.390;2022-10-16T14:38:29;101238.53;;;25.10;100.00
59608;BME280;45426;44.726;10.390;2022-10-16T14:40:57;101234.50;;;24.76;100.00
59608;BME280;45426;44.726;10.390;2022-10-16T14:43:36;101240.00;;;24.80;100.00